sensor_id;sensor_type;location;lat;lon;timestamp;P1;durP1;ratioP1;P2;durP2;ratioP2
48526;SDS011;34317;51.660;5.824;2023-02-15T00:02:00;27.48;;;15.07;;
48526;SDS011;34317;51.660;5.824;2023-02-15T00:04:28;28.60;;;15.20;;
48526;SDS011;34317;51.660;5.824;2023-02-15T00:07:14;31.60;;;16.08;;
48526;SDS011;34317;51.660;5.824;2023-02-15T00:09:42;30.48;;;14.95;;
48526;SDS011;34317;51.660;5.824;2023-02-15T00:12:09;28.98;;;14.30;;
48526;SDS011;34317;51.660;5.824;2023-02-15T00:14:37;27.23;;;14.75;;
48526;SDS011;34317;51.660;5.824;2023-02-15T00:17:05;27.70;;;13.98;;
48526;SDS011;34317;51.660;5.824;2023-02-15T00:19:32;25.10;;;14.32;;
48526;SDS011;34317;51.660;5.824;2023-02-15T00:22:00;27.50;;;14.50;;
48526;SDS011;34317;51.660;5.824;2023-02-15T00:24:27;27.25;;;14.70;;
48526;SDS011;34317;51.660;5.824;2023-02-15T00:26:54;30.02;;;16.60;;
48526;SDS011;34317;51.660;5.824;2023-02-15T00:29:21;31.05;;;15.50;;
48526;SDS011;34317;51.660;5.824;2023-02-15T00:31:49;28.40;;;14.52;;
48526;SDS011;34317;51.660;5.824;2023-02-15T00:34:21;30.67;;;15.52;;
48526;SDS011;34317;51.660;5.824;2023-02-15T00:36:50;27.52;;;14.88;;
48526;SDS011;34317;51.660;5.824;2023-02-15T00:39:18;30.60;;;14.40;;
48526;SDS011;34317;51.660;5.824;2023-02-15T00:41:46;32.38;;;14.82;;
48526;SDS011;34317;51.660;5.824;2023-02-15T00:44:14;31.17;;;15.48;;
48526;SDS011;34317;51.660;5.824;2023-02-15T00:46:42;33.15;;;16.05;;
48526;SDS011;34317;51.660;5.824;2023-02-15T00:49:09;30.02;;;15.18;;
48526;SDS011;34317;51.660;5.824;2023-02-15T00:51:37;30.05;;;15.80;;
48526;SDS011;34317;51.660;5.824;2023-02-15T00:54:06;27.63;;;15.48;;
48526;SDS011;34317;51.660;5.824;2023-02-15T00:56:34;27.77;;;14.98;;
48526;SDS011;34317;51.660;5.824;2023-02-15T00:59:01;28.58;;;15.27;;
48526;SDS011;34317;51.660;5.824;2023-02-15T01:01:30;29.95;;;14.88;;
48526;SDS011;34317;51.660;5.824;2023-02-15T01:03:57;29.92;;;16.02;;
48526;SDS011;34317;51.660;5.824;2023-02-15T01:06:24;27.77;;;14.75;;
48526;SDS011;34317;51.660;5.824;2023-02-15T01:08:52;33.95;;;15.43;;
48526;SDS011;34317;51.660;5.824;2023-02-15T01:11:20;29.67;;;15.43;;
48526;SDS011;34317;51.660;5.824;2023-02-15T01:13:54;30.13;;;15.35;;
48526;SDS011;34317;51.660;5.824;2023-02-15T01:16:23;33.88;;;16.02;;
48526;SDS011;34317;51.660;5.824;2023-02-15T01:18:54;29.70;;;14.98;;
48526;SDS011;34317;51.660;5.824;2023-02-15T01:21:22;30.75;;;15.85;;
48526;SDS011;34317;51.660;5.824;2023-02-15T01:23:51;30.33;;;15.38;;
48526;SDS011;34317;51.660;5.824;2023-02-15T01:26:19;32.60;;;15.68;;
48526;SDS011;34317;51.660;5.824;2023-02-15T01:28:47;28.48;;;15.57;;
48526;SDS011;34317;51.660;5.824;2023-02-15T01:31:17;28.92;;;14.73;;
48526;SDS011;34317;51.660;5.824;2023-02-15T01:33:47;28.83;;;15.00;;
48526;SDS011;34317;51.660;5.824;2023-02-15T01:36:14;31.00;;;15.40;;
48526;SDS011;34317;51.660;5.824;2023-02-15T01:38:41;30.30;;;15.05;;
48526;SDS011;34317;51.660;5.824;2023-02-15T01:41:09;29.42;;;14.75;;
48526;SDS011;34317;51.660;5.824;2023-02-15T01:44:03;28.67;;;14.13;;
48526;SDS011;34317;51.660;5.824;2023-02-15T01:46:51;27.23;;;13.77;;
48526;SDS011;34317;51.660;5.824;2023-02-15T01:49:20;28.73;;;14.55;;
48526;SDS011;34317;51.660;5.824;2023-02-15T01:51:52;28.20;;;14.40;;
48526;SDS011;34317;51.660;5.824;2023-02-15T01:54:25;29.60;;;14.90;;
48526;SDS011;34317;51.660;5.824;2023-02-15T01:56:57;27.77;;;14.10;;
48526;SDS011;34317;51.660;5.824;2023-02-15T01:59:31;29.35;;;15.15;;
48526;SDS011;34317;51.660;5.824;2023-02-15T02:02:02;27.95;;;14.50;;
48526;SDS011;34317;51.660;5.824;2023-02-15T02:07:06;28.50;;;14.70;;
48526;SDS011;34317;51.660;5.824;2023-02-15T02:09:35;25.30;;;14.00;;
48526;SDS011;34317;51.660;5.824;2023-02-15T02:12:04;26.83;;;14.57;;
48526;SDS011;34317;51.660;5.824;2023-02-15T02:14:32;26.90;;;13.95;;
48526;SDS011;34317;51.660;5.824;2023-02-15T02:17:07;30.65;;;15.85;;
48526;SDS011;34317;51.660;5.824;2023-02-15T02:36:48;31.02;;;14.80;;
48526;SDS011;34317;51.660;5.824;2023-02-15T02:48:00;27.00;;;13.93;;
48526;SDS011;34317;51.660;5.824;2023-02-15T02:50:14;28.10;;;14.40;;
48526;SDS011;34317;51.660;5.824;2023-02-15T02:52:45;28.83;;;14.27;;
48526;SDS011;34317;51.660;5.824;2023-02-15T02:55:19;31.75;;;15.90;;
48526;SDS011;34317;51.660;5.824;2023-02-15T03:01:22;27.40;;;14.70;;
48526;SDS011;34317;51.660;5.824;2023-02-15T03:03:58;31.98;;;14.00;;
48526;SDS011;34317;51.660;5.824;2023-02-15T03:06:30;29.75;;;15.15;;
48526;SDS011;34317;51.660;5.824;2023-02-15T03:09:12;30.70;;;13.85;;
48526;SDS011;34317;51.660;5.824;2023-02-15T03:11:45;29.92;;;14.38;;
48526;SDS011;34317;51.660;5.824;2023-02-15T03:14:15;28.27;;;14.77;;
48526;SDS011;34317;51.660;5.824;2023-02-15T03:16:46;30.42;;;15.10;;
48526;SDS011;34317;51.660;5.824;2023-02-15T03:19:26;29.75;;;14.48;;
48526;SDS011;34317;51.660;5.824;2023-02-15T03:22:00;30.10;;;14.70;;
48526;SDS011;34317;51.660;5.824;2023-02-15T03:24:54;32.97;;;14.63;;
48526;SDS011;34317;51.660;5.824;2023-02-15T03:27:24;27.88;;;13.98;;
48526;SDS011;34317;51.660;5.824;2023-02-15T03:29:55;28.25;;;13.60;;
48526;SDS011;34317;51.660;5.824;2023-02-15T03:32:25;28.55;;;14.55;;
48526;SDS011;34317;51.660;5.824;2023-02-15T03:34:57;25.58;;;13.25;;
48526;SDS011;34317;51.660;5.824;2023-02-15T03:40:23;28.73;;;14.20;;
48526;SDS011;34317;51.660;5.824;2023-02-15T03:43:19;29.92;;;14.98;;
48526;SDS011;34317;51.660;5.824;2023-02-15T03:45:50;26.45;;;13.07;;
48526;SDS011;34317;51.660;5.824;2023-02-15T03:48:29;24.83;;;13.25;;
48526;SDS011;34317;51.660;5.824;2023-02-15T03:51:01;22.25;;;12.63;;
48526;SDS011;34317;51.660;5.824;2023-02-15T03:53:53;27.23;;;13.00;;
48526;SDS011;34317;51.660;5.824;2023-02-15T03:56:22;24.88;;;12.98;;
48526;SDS011;34317;51.660;5.824;2023-02-15T03:58:49;26.98;;;12.95;;
48526;SDS011;34317;51.660;5.824;2023-02-15T04:01:39;24.50;;;13.50;;
48526;SDS011;34317;51.660;5.824;2023-02-15T04:04:34;25.58;;;12.77;;
48526;SDS011;34317;51.660;5.824;2023-02-15T04:07:06;26.67;;;12.60;;
48526;SDS011;34317;51.660;5.824;2023-02-15T04:09:35;24.83;;;13.07;;
48526;SDS011;34317;51.660;5.824;2023-02-15T04:12:21;24.45;;;12.75;;
48526;SDS011;34317;51.660;5.824;2023-02-15T04:14:48;24.23;;;12.52;;
48526;SDS011;34317;51.660;5.824;2023-02-15T04:17:35;26.67;;;13.02;;
48526;SDS011;34317;51.660;5.824;2023-02-15T04:20:03;28.30;;;14.25;;
48526;SDS011;34317;51.660;5.824;2023-02-15T04:22:49;28.77;;;14.10;;
48526;SDS011;34317;51.660;5.824;2023-02-15T04:28:02;34.53;;;14.55;;
48526;SDS011;34317;51.660;5.824;2023-02-15T04:30:30;27.10;;;14.18;;
48526;SDS011;34317;51.660;5.824;2023-02-15T04:32:57;28.73;;;14.07;;
48526;SDS011;34317;51.660;5.824;2023-02-15T04:35:24;29.58;;;14.55;;
48526;SDS011;34317;51.660;5.824;2023-02-15T04:37:52;29.08;;;14.50;;
48526;SDS011;34317;51.660;5.824;2023-02-15T04:40:19;31.90;;;14.90;;
48526;SDS011;34317;51.660;5.824;2023-02-15T04:42:47;28.88;;;14.02;;
48526;SDS011;34317;51.660;5.824;2023-02-15T04:45:16;25.60;;;13.43;;
48526;SDS011;34317;51.660;5.824;2023-02-15T04:47:44;25.58;;;13.25;;
48526;SDS011;34317;51.660;5.824;2023-02-15T04:50:11;28.23;;;14.23;;
48526;SDS011;34317;51.660;5.824;2023-02-15T04:52:38;26.42;;;13.68;;
48526;SDS011;34317;51.660;5.824;2023-02-15T04:55:06;29.70;;;14.43;;
48526;SDS011;34317;51.660;5.824;2023-02-15T04:57:33;29.77;;;13.77;;
48526;SDS011;34317;51.660;5.824;2023-02-15T05:00:01;31.08;;;15.40;;
48526;SDS011;34317;51.660;5.824;2023-02-15T05:02:28;30.92;;;14.32;;
48526;SDS011;34317;51.660;5.824;2023-02-15T05:04:55;30.98;;;14.88;;
48526;SDS011;34317;51.660;5.824;2023-02-15T05:07:23;30.33;;;14.30;;
48526;SDS011;34317;51.660;5.824;2023-02-15T05:09:50;28.13;;;14.55;;
48526;SDS011;34317;51.660;5.824;2023-02-15T05:12:17;30.40;;;15.07;;
48526;SDS011;34317;51.660;5.824;2023-02-15T05:14:44;31.80;;;15.48;;
48526;SDS011;34317;51.660;5.824;2023-02-15T05:17:11;34.80;;;15.57;;
48526;SDS011;34317;51.660;5.824;2023-02-15T05:19:39;31.73;;;16.30;;
48526;SDS011;34317;51.660;5.824;2023-02-15T05:22:06;31.38;;;15.55;;
48526;SDS011;34317;51.660;5.824;2023-02-15T05:24:33;37.00;;;16.10;;
48526;SDS011;34317;51.660;5.824;2023-02-15T05:27:19;33.88;;;16.23;;
48526;SDS011;34317;51.660;5.824;2023-02-15T05:30:05;36.03;;;15.98;;
48526;SDS011;34317;51.660;5.824;2023-02-15T05:32:38;34.08;;;16.35;;
48526;SDS011;34317;51.660;5.824;2023-02-15T05:35:06;37.78;;;16.58;;
48526;SDS011;34317;51.660;5.824;2023-02-15T05:37:34;36.60;;;17.38;;
48526;SDS011;34317;51.660;5.824;2023-02-15T05:40:01;35.92;;;15.82;;
48526;SDS011;34317;51.660;5.824;2023-02-15T05:42:29;31.85;;;16.27;;
48526;SDS011;34317;51.660;5.824;2023-02-15T05:44:56;37.55;;;16.67;;
48526;SDS011;34317;51.660;5.824;2023-02-15T05:47:23;36.50;;;16.15;;
48526;SDS011;34317;51.660;5.824;2023-02-15T05:49:50;35.88;;;16.70;;
48526;SDS011;34317;51.660;5.824;2023-02-15T05:52:17;33.63;;;16.48;;
48526;SDS011;34317;51.660;5.824;2023-02-15T05:54:45;36.38;;;16.98;;
48526;SDS011;34317;51.660;5.824;2023-02-15T05:57:12;36.13;;;16.77;;
48526;SDS011;34317;51.660;5.824;2023-02-15T05:59:39;37.10;;;17.52;;
48526;SDS011;34317;51.660;5.824;2023-02-15T06:02:06;34.55;;;16.38;;
48526;SDS011;34317;51.660;5.824;2023-02-15T06:04:34;36.50;;;16.40;;
48526;SDS011;34317;51.660;5.824;2023-02-15T06:07:01;36.65;;;16.67;;
48526;SDS011;34317;51.660;5.824;2023-02-15T06:09:28;37.55;;;16.48;;
48526;SDS011;34317;51.660;5.824;2023-02-15T06:11:55;37.45;;;16.42;;
48526;SDS011;34317;51.660;5.824;2023-02-15T06:14:22;37.72;;;17.45;;
48526;SDS011;34317;51.660;5.824;2023-02-15T06:16:50;38.65;;;16.98;;
48526;SDS011;34317;51.660;5.824;2023-02-15T06:19:17;33.45;;;16.33;;
48526;SDS011;34317;51.660;5.824;2023-02-15T06:21:45;36.33;;;16.63;;
48526;SDS011;34317;51.660;5.824;2023-02-15T06:24:13;34.00;;;14.90;;
48526;SDS011;34317;51.660;5.824;2023-02-15T06:26:40;23.33;;;9.73;;
48526;SDS011;34317;51.660;5.824;2023-02-15T06:29:07;27.27;;;10.18;;
48526;SDS011;34317;51.660;5.824;2023-02-15T06:31:34;25.13;;;10.70;;
48526;SDS011;34317;51.660;5.824;2023-02-15T06:34:02;27.63;;;10.52;;
48526;SDS011;34317;51.660;5.824;2023-02-15T06:36:30;24.38;;;10.23;;
48526;SDS011;34317;51.660;5.824;2023-02-15T06:38:58;28.33;;;11.23;;
48526;SDS011;34317;51.660;5.824;2023-02-15T06:41:25;24.33;;;11.50;;
48526;SDS011;34317;51.660;5.824;2023-02-15T06:43:52;27.35;;;11.05;;
48526;SDS011;34317;51.660;5.824;2023-02-15T06:46:20;26.45;;;11.65;;
48526;SDS011;34317;51.660;5.824;2023-02-15T06:48:47;24.60;;;11.23;;
48526;SDS011;34317;51.660;5.824;2023-02-15T06:51:14;27.25;;;10.82;;
48526;SDS011;34317;51.660;5.824;2023-02-15T06:53:41;25.77;;;11.43;;
48526;SDS011;34317;51.660;5.824;2023-02-15T06:56:09;30.70;;;11.48;;
48526;SDS011;34317;51.660;5.824;2023-02-15T06:58:40;24.85;;;11.32;;
48526;SDS011;34317;51.660;5.824;2023-02-15T07:01:08;28.33;;;11.90;;
48526;SDS011;34317;51.660;5.824;2023-02-15T07:03:36;28.73;;;11.65;;
48526;SDS011;34317;51.660;5.824;2023-02-15T07:06:04;28.95;;;12.00;;
48526;SDS011;34317;51.660;5.824;2023-02-15T07:08:35;25.25;;;11.25;;
48526;SDS011;34317;51.660;5.824;2023-02-15T07:11:03;31.27;;;11.95;;
48526;SDS011;34317;51.660;5.824;2023-02-15T07:13:51;27.95;;;11.40;;
48526;SDS011;34317;51.660;5.824;2023-02-15T07:16:19;32.17;;;12.50;;
48526;SDS011;34317;51.660;5.824;2023-02-15T07:18:47;31.27;;;12.10;;
48526;SDS011;34317;51.660;5.824;2023-02-15T07:21:14;28.02;;;11.57;;
48526;SDS011;34317;51.660;5.824;2023-02-15T07:23:41;30.13;;;11.65;;
48526;SDS011;34317;51.660;5.824;2023-02-15T07:26:09;30.85;;;12.65;;
48526;SDS011;34317;51.660;5.824;2023-02-15T07:28:36;29.30;;;11.65;;
48526;SDS011;34317;51.660;5.824;2023-02-15T07:31:04;32.08;;;12.23;;
48526;SDS011;34317;51.660;5.824;2023-02-15T07:33:32;30.80;;;12.20;;
48526;SDS011;34317;51.660;5.824;2023-02-15T07:36:01;31.02;;;12.35;;
48526;SDS011;34317;51.660;5.824;2023-02-15T07:38:32;37.17;;;13.45;;
48526;SDS011;34317;51.660;5.824;2023-02-15T07:41:01;36.42;;;15.00;;
48526;SDS011;34317;51.660;5.824;2023-02-15T07:43:29;35.58;;;15.30;;
48526;SDS011;34317;51.660;5.824;2023-02-15T07:46:00;35.75;;;16.15;;
48526;SDS011;34317;51.660;5.824;2023-02-15T07:48:28;43.45;;;16.65;;
48526;SDS011;34317;51.660;5.824;2023-02-15T07:50:58;36.60;;;15.57;;
48526;SDS011;34317;51.660;5.824;2023-02-15T07:53:27;37.58;;;16.20;;
48526;SDS011;34317;51.660;5.824;2023-02-15T07:55:54;39.10;;;15.45;;
48526;SDS011;34317;51.660;5.824;2023-02-15T07:58:26;37.72;;;17.73;;
48526;SDS011;34317;51.660;5.824;2023-02-15T08:01:13;35.97;;;16.38;;
48526;SDS011;34317;51.660;5.824;2023-02-15T08:03:41;34.30;;;15.95;;
48526;SDS011;34317;51.660;5.824;2023-02-15T08:06:09;37.95;;;16.65;;
48526;SDS011;34317;51.660;5.824;2023-02-15T08:08:38;38.25;;;16.80;;
48526;SDS011;34317;51.660;5.824;2023-02-15T08:11:23;35.72;;;17.27;;
48526;SDS011;34317;51.660;5.824;2023-02-15T08:14:03;40.00;;;16.85;;
48526;SDS011;34317;51.660;5.824;2023-02-15T08:16:38;41.45;;;16.75;;
48526;SDS011;34317;51.660;5.824;2023-02-15T08:21:38;39.17;;;16.67;;
48526;SDS011;34317;51.660;5.824;2023-02-15T08:24:08;34.22;;;14.77;;
48526;SDS011;34317;51.660;5.824;2023-02-15T08:26:37;34.78;;;15.82;;
48526;SDS011;34317;51.660;5.824;2023-02-15T08:29:08;38.38;;;16.10;;
48526;SDS011;34317;51.660;5.824;2023-02-15T08:31:36;38.40;;;16.88;;
48526;SDS011;34317;51.660;5.824;2023-02-15T08:34:04;43.72;;;16.48;;
48526;SDS011;34317;51.660;5.824;2023-02-15T08:36:32;43.90;;;16.92;;
48526;SDS011;34317;51.660;5.824;2023-02-15T08:39:00;36.75;;;16.85;;
48526;SDS011;34317;51.660;5.824;2023-02-15T08:41:29;37.30;;;16.90;;
48526;SDS011;34317;51.660;5.824;2023-02-15T08:43:59;40.55;;;17.38;;
48526;SDS011;34317;51.660;5.824;2023-02-15T08:46:29;37.08;;;17.60;;
48526;SDS011;34317;51.660;5.824;2023-02-15T08:48:58;38.55;;;17.13;;
48526;SDS011;34317;51.660;5.824;2023-02-15T08:51:26;42.35;;;19.10;;
48526;SDS011;34317;51.660;5.824;2023-02-15T08:53:56;43.45;;;19.65;;
48526;SDS011;34317;51.660;5.824;2023-02-15T08:56:26;40.53;;;18.85;;
48526;SDS011;34317;51.660;5.824;2023-02-15T08:58:55;47.60;;;19.17;;
48526;SDS011;34317;51.660;5.824;2023-02-15T09:01:24;45.45;;;19.08;;
48526;SDS011;34317;51.660;5.824;2023-02-15T09:03:57;38.35;;;17.83;;
48526;SDS011;34317;51.660;5.824;2023-02-15T09:06:27;42.17;;;18.15;;
48526;SDS011;34317;51.660;5.824;2023-02-15T09:08:55;40.55;;;18.05;;
48526;SDS011;34317;51.660;5.824;2023-02-15T09:11:25;46.10;;;17.88;;
48526;SDS011;34317;51.660;5.824;2023-02-15T09:13:58;41.05;;;18.25;;
48526;SDS011;34317;51.660;5.824;2023-02-15T09:16:30;41.58;;;17.27;;
48526;SDS011;34317;51.660;5.824;2023-02-15T09:18:59;42.30;;;18.48;;
48526;SDS011;34317;51.660;5.824;2023-02-15T09:21:31;41.90;;;18.13;;
48526;SDS011;34317;51.660;5.824;2023-02-15T09:24:01;41.83;;;17.77;;
48526;SDS011;34317;51.660;5.824;2023-02-15T09:26:32;46.65;;;18.27;;
48526;SDS011;34317;51.660;5.824;2023-02-15T09:29:03;38.08;;;17.17;;
48526;SDS011;34317;51.660;5.824;2023-02-15T09:31:32;40.05;;;17.73;;
48526;SDS011;34317;51.660;5.824;2023-02-15T09:34:01;39.33;;;18.20;;
48526;SDS011;34317;51.660;5.824;2023-02-15T09:36:32;36.97;;;17.90;;
48526;SDS011;34317;51.660;5.824;2023-02-15T09:39:11;36.28;;;16.90;;
48526;SDS011;34317;51.660;5.824;2023-02-15T09:41:54;39.00;;;16.98;;
48526;SDS011;34317;51.660;5.824;2023-02-15T09:47:53;42.53;;;18.02;;
48526;SDS011;34317;51.660;5.824;2023-02-15T09:50:37;37.00;;;17.67;;
48526;SDS011;34317;51.660;5.824;2023-02-15T09:56:06;39.85;;;18.48;;
48526;SDS011;34317;51.660;5.824;2023-02-15T10:10:18;36.83;;;18.27;;
48526;SDS011;34317;51.660;5.824;2023-02-15T10:21:20;39.97;;;18.33;;
48526;SDS011;34317;51.660;5.824;2023-02-15T10:24:14;37.83;;;17.80;;
48526;SDS011;34317;51.660;5.824;2023-02-15T10:26:54;41.53;;;17.80;;
48526;SDS011;34317;51.660;5.824;2023-02-15T10:32:22;36.72;;;17.35;;
48526;SDS011;34317;51.660;5.824;2023-02-15T10:34:52;38.22;;;17.33;;
48526;SDS011;34317;51.660;5.824;2023-02-15T10:46:42;36.33;;;16.92;;
48526;SDS011;34317;51.660;5.824;2023-02-15T10:52:17;34.38;;;15.93;;
48526;SDS011;34317;51.660;5.824;2023-02-15T11:00:37;35.20;;;15.68;;
48526;SDS011;34317;51.660;5.824;2023-02-15T11:06:19;30.23;;;14.60;;
48526;SDS011;34317;51.660;5.824;2023-02-15T11:08:57;32.33;;;14.90;;
48526;SDS011;34317;51.660;5.824;2023-02-15T11:14:02;30.40;;;14.85;;
48526;SDS011;34317;51.660;5.824;2023-02-15T11:16:37;34.35;;;15.60;;
48526;SDS011;34317;51.660;5.824;2023-02-15T11:19:12;28.95;;;14.63;;
48526;SDS011;34317;51.660;5.824;2023-02-15T11:21:44;29.50;;;14.77;;
48526;SDS011;34317;51.660;5.824;2023-02-15T11:24:17;32.15;;;14.35;;
48526;SDS011;34317;51.660;5.824;2023-02-15T11:26:50;30.77;;;14.18;;
48526;SDS011;34317;51.660;5.824;2023-02-15T11:29:44;31.90;;;14.55;;
48526;SDS011;34317;51.660;5.824;2023-02-15T11:34:56;28.60;;;13.82;;
48526;SDS011;34317;51.660;5.824;2023-02-15T11:37:50;31.23;;;14.60;;
48526;SDS011;34317;51.660;5.824;2023-02-15T11:40:20;28.67;;;14.80;;
48526;SDS011;34317;51.660;5.824;2023-02-15T11:42:55;28.80;;;14.73;;
48526;SDS011;34317;51.660;5.824;2023-02-15T11:45:31;31.50;;;15.13;;
48526;SDS011;34317;51.660;5.824;2023-02-15T11:48:01;31.38;;;15.23;;
48526;SDS011;34317;51.660;5.824;2023-02-15T11:50:37;31.40;;;14.68;;
48526;SDS011;34317;51.660;5.824;2023-02-15T11:53:05;29.30;;;14.20;;
48526;SDS011;34317;51.660;5.824;2023-02-15T11:55:38;29.27;;;15.23;;
48526;SDS011;34317;51.660;5.824;2023-02-15T11:58:27;29.50;;;14.65;;
48526;SDS011;34317;51.660;5.824;2023-02-15T12:00:58;33.35;;;15.23;;
48526;SDS011;34317;51.660;5.824;2023-02-15T12:06:24;30.55;;;14.48;;
48526;SDS011;34317;51.660;5.824;2023-02-15T12:11:38;29.63;;;14.55;;
48526;SDS011;34317;51.660;5.824;2023-02-15T12:14:07;29.17;;;14.13;;
48526;SDS011;34317;51.660;5.824;2023-02-15T12:16:43;28.15;;;13.38;;
48526;SDS011;34317;51.660;5.824;2023-02-15T12:19:29;27.40;;;14.25;;
48526;SDS011;34317;51.660;5.824;2023-02-15T12:22:00;29.73;;;14.60;;
48526;SDS011;34317;51.660;5.824;2023-02-15T12:24:32;33.00;;;14.70;;
48526;SDS011;34317;51.660;5.824;2023-02-15T12:27:14;27.75;;;15.07;;
48526;SDS011;34317;51.660;5.824;2023-02-15T12:30:03;29.77;;;13.63;;
48526;SDS011;34317;51.660;5.824;2023-02-15T12:32:35;27.83;;;13.18;;
48526;SDS011;34317;51.660;5.824;2023-02-15T12:38:05;29.13;;;13.65;;
48526;SDS011;34317;51.660;5.824;2023-02-15T12:41:01;30.40;;;13.52;;
48526;SDS011;34317;51.660;5.824;2023-02-15T12:43:48;27.70;;;13.82;;
48526;SDS011;34317;51.660;5.824;2023-02-15T12:46:31;27.27;;;12.80;;
48526;SDS011;34317;51.660;5.824;2023-02-15T12:49:05;26.90;;;13.20;;
48526;SDS011;34317;51.660;5.824;2023-02-15T12:51:50;25.95;;;13.50;;
48526;SDS011;34317;51.660;5.824;2023-02-15T12:59:57;29.42;;;14.27;;
48526;SDS011;34317;51.660;5.824;2023-02-15T13:02:27;28.65;;;14.30;;
48526;SDS011;34317;51.660;5.824;2023-02-15T13:05:10;28.23;;;14.63;;
48526;SDS011;34317;51.660;5.824;2023-02-15T13:07:50;33.10;;;14.45;;
48526;SDS011;34317;51.660;5.824;2023-02-15T13:12:56;30.75;;;13.50;;
48526;SDS011;34317;51.660;5.824;2023-02-15T13:15:26;29.92;;;14.90;;
48526;SDS011;34317;51.660;5.824;2023-02-15T13:17:58;28.75;;;14.93;;
48526;SDS011;34317;51.660;5.824;2023-02-15T13:20:27;28.08;;;14.88;;
48526;SDS011;34317;51.660;5.824;2023-02-15T13:22:59;28.80;;;14.50;;
48526;SDS011;34317;51.660;5.824;2023-02-15T13:25:32;27.85;;;14.05;;
48526;SDS011;34317;51.660;5.824;2023-02-15T13:28:12;26.67;;;13.88;;
48526;SDS011;34317;51.660;5.824;2023-02-15T13:30:43;29.80;;;13.60;;
48526;SDS011;34317;51.660;5.824;2023-02-15T13:36:02;27.80;;;14.70;;
48526;SDS011;34317;51.660;5.824;2023-02-15T13:38:51;29.45;;;14.73;;
48526;SDS011;34317;51.660;5.824;2023-02-15T13:41:27;28.05;;;14.27;;
48526;SDS011;34317;51.660;5.824;2023-02-15T13:47:21;27.98;;;14.15;;
48526;SDS011;34317;51.660;5.824;2023-02-15T13:52:32;28.10;;;14.63;;
48526;SDS011;34317;51.660;5.824;2023-02-15T14:07:07;27.73;;;13.65;;
48526;SDS011;34317;51.660;5.824;2023-02-15T14:09:52;28.88;;;14.00;;
48526;SDS011;34317;51.660;5.824;2023-02-15T14:12:29;28.30;;;14.90;;
48526;SDS011;34317;51.660;5.824;2023-02-15T14:20:23;28.73;;;14.57;;
48526;SDS011;34317;51.660;5.824;2023-02-15T14:23:06;29.20;;;15.07;;
48526;SDS011;34317;51.660;5.824;2023-02-15T14:25:55;32.00;;;15.07;;
48526;SDS011;34317;51.660;5.824;2023-02-15T14:28:28;31.00;;;15.43;;
48526;SDS011;34317;51.660;5.824;2023-02-15T14:36:05;27.38;;;14.95;;
48526;SDS011;34317;51.660;5.824;2023-02-15T14:41:37;30.13;;;15.82;;
48526;SDS011;34317;51.660;5.824;2023-02-15T14:44:23;28.42;;;14.57;;
48526;SDS011;34317;51.660;5.824;2023-02-15T14:49:33;27.20;;;14.52;;
48526;SDS011;34317;51.660;5.824;2023-02-15T14:52:07;26.90;;;14.98;;
48526;SDS011;34317;51.660;5.824;2023-02-15T14:59:39;28.13;;;15.10;;
48526;SDS011;34317;51.660;5.824;2023-02-15T15:02:15;32.40;;;15.32;;
48526;SDS011;34317;51.660;5.824;2023-02-15T15:07:47;28.00;;;14.05;;
48526;SDS011;34317;51.660;5.824;2023-02-15T15:12:53;29.45;;;13.55;;
48526;SDS011;34317;51.660;5.824;2023-02-15T15:18:02;26.05;;;14.25;;
48526;SDS011;34317;51.660;5.824;2023-02-15T15:26:25;29.50;;;15.32;;
48526;SDS011;34317;51.660;5.824;2023-02-15T15:28:58;30.65;;;14.77;;
48526;SDS011;34317;51.660;5.824;2023-02-15T15:43:11;29.70;;;16.35;;
48526;SDS011;34317;51.660;5.824;2023-02-15T15:46:06;34.95;;;17.30;;
48526;SDS011;34317;51.660;5.824;2023-02-15T15:48:48;32.58;;;16.67;;
48526;SDS011;34317;51.660;5.824;2023-02-15T15:51:19;31.42;;;15.98;;
48526;SDS011;34317;51.660;5.824;2023-02-15T15:53:50;29.88;;;16.58;;
48526;SDS011;34317;51.660;5.824;2023-02-15T15:56:21;30.52;;;15.70;;
48526;SDS011;34317;51.660;5.824;2023-02-15T15:58:56;33.13;;;15.67;;
48526;SDS011;34317;51.660;5.824;2023-02-15T16:01:27;30.92;;;14.77;;
48526;SDS011;34317;51.660;5.824;2023-02-15T16:04:02;30.77;;;15.32;;
48526;SDS011;34317;51.660;5.824;2023-02-15T16:06:34;29.00;;;14.95;;
48526;SDS011;34317;51.660;5.824;2023-02-15T16:09:19;31.55;;;14.75;;
48526;SDS011;34317;51.660;5.824;2023-02-15T16:11:50;33.35;;;15.75;;
48526;SDS011;34317;51.660;5.824;2023-02-15T16:14:30;36.25;;;15.57;;
48526;SDS011;34317;51.660;5.824;2023-02-15T16:17:02;34.15;;;15.50;;
48526;SDS011;34317;51.660;5.824;2023-02-15T16:19:38;31.60;;;15.10;;
48526;SDS011;34317;51.660;5.824;2023-02-15T16:22:12;30.05;;;15.35;;
48526;SDS011;34317;51.660;5.824;2023-02-15T16:30:24;33.45;;;16.38;;
48526;SDS011;34317;51.660;5.824;2023-02-15T16:32:55;32.45;;;15.90;;
48526;SDS011;34317;51.660;5.824;2023-02-15T16:35:38;32.92;;;16.83;;
48526;SDS011;34317;51.660;5.824;2023-02-15T16:38:30;30.27;;;15.65;;
48526;SDS011;34317;51.660;5.824;2023-02-15T16:41:28;35.55;;;16.23;;
48526;SDS011;34317;51.660;5.824;2023-02-15T16:43:58;36.47;;;17.38;;
48526;SDS011;34317;51.660;5.824;2023-02-15T16:49:04;31.23;;;16.77;;
48526;SDS011;34317;51.660;5.824;2023-02-15T16:51:41;30.83;;;16.27;;
48526;SDS011;34317;51.660;5.824;2023-02-15T16:54:15;33.60;;;16.77;;
48526;SDS011;34317;51.660;5.824;2023-02-15T16:56:48;30.60;;;16.02;;
48526;SDS011;34317;51.660;5.824;2023-02-15T16:59:20;34.42;;;17.42;;
48526;SDS011;34317;51.660;5.824;2023-02-15T17:01:59;38.20;;;17.20;;
48526;SDS011;34317;51.660;5.824;2023-02-15T17:04:30;35.20;;;17.63;;
48526;SDS011;34317;51.660;5.824;2023-02-15T17:09:56;31.20;;;17.02;;
48526;SDS011;34317;51.660;5.824;2023-02-15T17:15:27;38.25;;;18.85;;
48526;SDS011;34317;51.660;5.824;2023-02-15T17:17:57;36.33;;;18.63;;
48526;SDS011;34317;51.660;5.824;2023-02-15T17:20:28;38.55;;;19.08;;
48526;SDS011;34317;51.660;5.824;2023-02-15T17:22:59;36.15;;;19.20;;
48526;SDS011;34317;51.660;5.824;2023-02-15T17:25:35;35.67;;;19.70;;
48526;SDS011;34317;51.660;5.824;2023-02-15T17:28:05;39.15;;;19.13;;
48526;SDS011;34317;51.660;5.824;2023-02-15T17:30:45;35.65;;;18.98;;
48526;SDS011;34317;51.660;5.824;2023-02-15T17:39:00;34.42;;;18.77;;
48526;SDS011;34317;51.660;5.824;2023-02-15T17:41:34;36.88;;;19.25;;
48526;SDS011;34317;51.660;5.824;2023-02-15T17:44:04;41.25;;;19.58;;
48526;SDS011;34317;51.660;5.824;2023-02-15T17:46:35;35.85;;;19.63;;
48526;SDS011;34317;51.660;5.824;2023-02-15T17:49:04;31.02;;;18.13;;
48526;SDS011;34317;51.660;5.824;2023-02-15T17:51:31;37.20;;;19.52;;
48526;SDS011;34317;51.660;5.824;2023-02-15T17:54:01;37.55;;;19.98;;
48526;SDS011;34317;51.660;5.824;2023-02-15T17:56:47;37.13;;;19.33;;
48526;SDS011;34317;51.660;5.824;2023-02-15T17:59:15;38.10;;;19.98;;
48526;SDS011;34317;51.660;5.824;2023-02-15T18:01:46;41.80;;;19.67;;
48526;SDS011;34317;51.660;5.824;2023-02-15T18:04:34;38.28;;;19.13;;
48526;SDS011;34317;51.660;5.824;2023-02-15T18:07:21;35.13;;;18.42;;
48526;SDS011;34317;51.660;5.824;2023-02-15T18:13:03;36.42;;;18.20;;
48526;SDS011;34317;51.660;5.824;2023-02-15T18:15:30;33.97;;;18.05;;